East McDonough, New York
Current Conditions -  °F | °C
As of 1:07 AM on Sunday 26 Oct 2014 (Local Time) from KBGM Reporting Station
Thunderstorm Thunderstorm  
Wind Chill: 34°   Ceiling: 2800
Heat Index: 44°   Visibility: 2.5mi
Dew Point: 40°   Wind: 29mph
Humidity: 85%   Direction: 330°NNW
Pressure: 29.59"   Gusts: 41mph
Location:  42.4446°N, 75.6311°W
Report Text: KBGM 260507Z AUTO 33025G36KT 2 1/2SM +TSRA BR FEW022 BKN028 OVC038 07/04 A2959 RMK AO2 PK WND 34036/0507 WSHFT 0445 LTG DSNT NE AND E TSB0455 P0006 T00670044
Loading
Personal Weather Stations






























Interactive Weather Map
Tropical Storm Tracking
New forecast layout! Learn more

10-Day Weather Forecast

Advertisements
Track Severe Weather on mobile